6A2

Griffin-Spalding County Airport

Griffin, Georgia, USA
METAR K6A2 092235Z AUTO 04004KT 2SM OVC006 01/01 A2997 RMK AO2
Observed Flight Rules
Dec-9 @ 22:35 UTC (19 minutes ago) Instrument Flight Rules
Wind Visibility Clouds
40° at 4 knots 2 miles
  • Overcast at 600' AGL
Temperatures Readings
Current 1°C / 34°F
Dewpoint 1°C / 34°F
Humidity 100%
Altimeter 29.97" Hg
Pressure 1015 hPa
Elevation 292
METAR K6A2 092235Z AUTO 04004KT 2SM OVC006 01/01 A2997 RMK AO2
Observed Flight Rules
Dec-9 @ 22:35 UTC
(19 minutes ago)
IFR
Wind Visibility
40° at 4 knots 2 miles
Clouds
  • Overcast at 600' AGL
Temperature Dewpoint
1°C / 34°F 1°C / 34°F
Humidity Altimeter Pressure
100% 29.97" Hg 1015 hPa